Time;durP1;ratioP1;P1;durP2;ratioP2;P2;SDS_P1;SDS_P2;PMS_P1;PMS_P2;Temp;Humidity;BMP_temperature;BMP_pressure;BME280_temperature;BME280_humidity;BME280_pressure;Samples;Min_cycle;Max_cycle;Signal;HPM_P1;HPM_P2
2022/01/11 00:00:12;;;;;;;30.60;16.07;;;;;;;-0.50;100.00;96615.81;6075716;23;20162;-84
2022/01/11 00:02:42;;;;;;;35.00;17.60;;;;;;;-0.48;100.00;96619.97;6049589;23;20172;-83
2022/01/11 00:05:08;;;;;;;27.70;14.73;;;;;;;-0.45;100.00;96614.75;6050611;23;20192;-81
2022/01/11 00:07:35;;;;;;;27.13;15.50;;;;;;;-0.46;100.00;96617.34;6048502;23;20193;-81
2022/01/11 00:10:02;;;;;;;29.87;16.20;;;;;;;-0.46;100.00;96615.63;6050875;23;20597;-82
2022/01/11 00:12:27;;;;;;;29.27;15.47;;;;;;;-0.45;100.00;96619.84;6071994;23;20166;-82
2022/01/11 00:14:52;;;;;;;33.27;15.10;;;;;;;-0.42;100.00;96618.91;6048496;23;20168;-83
2022/01/11 00:17:18;;;;;;;30.53;15.07;;;;;;;-0.38;100.00;96613.63;6071862;23;20211;-83
2022/01/11 00:19:45;;;;;;;32.47;15.93;;;;;;;-0.37;100.00;96620.41;6048396;23;20166;-84
2022/01/11 00:22:18;;;;;;;26.97;14.73;;;;;;;-0.39;100.00;96614.53;6048431;23;20520;-83
2022/01/11 00:24:43;;;;;;;32.27;17.07;;;;;;;-0.40;100.00;96617.13;6073810;23;20459;-84
2022/01/11 00:27:10;;;;;;;29.83;15.57;;;;;;;-0.36;100.00;96614.41;6048702;23;20184;-83
2022/01/11 00:29:40;;;;;;;33.10;15.90;;;;;;;-0.38;100.00;96616.19;6048742;23;20161;-83
2022/01/11 00:32:10;;;;;;;25.73;15.70;;;;;;;-0.34;100.00;96620.31;6049580;23;20230;-84
2022/01/11 00:34:50;;;;;;;31.67;16.13;;;;;;;-0.32;100.00;96621.09;6050476;23;20255;-83
2022/01/11 00:37:17;;;;;;;26.60;16.00;;;;;;;-0.31;100.00;96622.75;6075786;23;20206;-83
2022/01/11 00:39:42;;;;;;;30.10;16.00;;;;;;;-0.31;100.00;96625.28;6048431;23;20171;-83
2022/01/11 00:42:09;;;;;;;32.07;17.67;;;;;;;-0.31;100.00;96621.91;6046381;23;20179;-83
2022/01/11 00:44:34;;;;;;;34.40;17.53;;;;;;;-0.29;100.00;96625.22;6072323;23;20168;-84
2022/01/11 00:47:00;;;;;;;32.37;15.13;;;;;;;-0.24;100.00;96618.25;6048375;23;20190;-83
2022/01/11 00:49:25;;;;;;;32.33;15.90;;;;;;;-0.19;100.00;96621.47;6049195;23;20160;-83
2022/01/11 00:51:50;;;;;;;30.00;15.67;;;;;;;-0.18;100.00;96618.00;6048538;23;20556;-83
2022/01/11 00:54:16;;;;;;;28.67;15.53;;;;;;;-0.21;100.00;96618.13;6049230;23;20198;-83
2022/01/11 00:56:41;;;;;;;24.57;14.70;;;;;;;-0.19;100.00;96615.53;6071247;23;20194;-83
2022/01/11 00:59:06;;;;;;;24.70;14.47;;;;;;;-0.15;100.00;96622.19;6047106;23;20164;-83
2022/01/11 01:01:37;;;;;;;26.30;14.67;;;;;;;-0.21;100.00;96622.41;6047498;23;20184;-83
2022/01/11 01:04:06;;;;;;;30.10;15.13;;;;;;;-0.21;100.00;96620.69;6049690;23;20457;-83
2022/01/11 01:06:31;;;;;;;32.93;16.43;;;;;;;-0.25;100.00;96623.44;6072411;23;20170;-83
2022/01/11 01:08:56;;;;;;;26.10;14.63;;;;;;;-0.26;100.00;96625.16;6049163;23;20488;-83
2022/01/11 01:11:22;;;;;;;32.37;15.17;;;;;;;-0.26;100.00;96629.41;6048019;23;20180;-83
2022/01/11 01:13:47;;;;;;;31.63;16.10;;;;;;;-0.29;100.00;96628.63;6072763;23;20167;-83
2022/01/11 01:16:12;;;;;;;28.57;15.70;;;;;;;-0.26;100.00;96630.25;6048841;23;20163;-83
2022/01/11 01:18:38;;;;;;;35.40;15.80;;;;;;;-0.21;100.00;96637.72;6073052;23;20217;-83
2022/01/11 01:21:04;;;;;;;34.37;15.40;;;;;;;-0.23;100.00;96637.78;6075155;23;20219;-82
2022/01/11 01:23:29;;;;;;;28.37;15.63;;;;;;;-0.28;100.00;96632.84;6049869;23;20661;-82
2022/01/11 01:25:55;;;;;;;30.60;15.43;;;;;;;-0.27;100.00;96631.09;6050666;23;20167;-82
2022/01/11 01:28:23;;;;;;;27.83;15.70;;;;;;;-0.30;100.00;96639.72;6072363;23;20187;-83
2022/01/11 01:30:49;;;;;;;32.03;16.57;;;;;;;-0.30;100.00;96644.81;6050594;23;20598;-82
2022/01/11 01:33:18;;;;;;;35.20;17.97;;;;;;;-0.33;100.00;96644.94;6050328;23;20160;-81
2022/01/11 01:35:49;;;;;;;29.37;15.93;;;;;;;-0.33;100.00;96637.28;6073805;23;20148;-84
2022/01/11 01:38:21;;;;;;;37.03;18.80;;;;;;;-0.33;100.00;96644.13;6071950;23;20207;-81
2022/01/11 01:40:47;;;;;;;32.83;17.57;;;;;;;-0.34;100.00;96634.78;6053435;23;20674;-82
2022/01/11 01:43:13;;;;;;;29.73;17.23;;;;;;;-0.35;100.00;96635.69;6073792;23;20218;-82
2022/01/11 01:45:40;;;;;;;30.87;16.40;;;;;;;-0.38;100.00;96640.88;6075404;23;20163;-83
2022/01/11 01:48:06;;;;;;;35.47;17.37;;;;;;;-0.39;100.00;96636.66;6051936;23;20618;-83
2022/01/11 01:50:33;;;;;;;29.43;16.33;;;;;;;-0.38;100.00;96651.91;6052214;23;20156;-82
2022/01/11 01:53:00;;;;;;;32.80;17.00;;;;;;;-0.40;100.00;96646.03;6051352;23;20163;-82
2022/01/11 01:55:26;;;;;;;34.03;16.50;;;;;;;-0.39;100.00;96645.16;6051771;23;20159;-82
2022/01/11 01:57:51;;;;;;;34.87;16.40;;;;;;;-0.38;100.00;96653.63;6051814;23;20188;-81
2022/01/11 02:00:18;;;;;;;32.83;15.40;;;;;;;-0.36;100.00;96656.97;6075601;23;20185;-83
2022/01/11 02:02:44;;;;;;;35.43;15.90;;;;;;;-0.36;100.00;96656.97;6050272;23;20633;-82
2022/01/11 02:05:09;;;;;;;30.10;14.30;;;;;;;-0.34;100.00;96653.50;6072977;23;20307;-83
2022/01/11 02:07:35;;;;;;;30.83;15.20;;;;;;;-0.32;100.00;96656.81;6072838;23;20254;-83
2022/01/11 02:10:03;;;;;;;26.33;13.47;;;;;;;-0.31;100.00;96647.44;6072815;23;20167;-82
2022/01/11 02:12:28;;;;;;;27.33;12.93;;;;;;;-0.32;100.00;96650.88;6048961;23;20170;-83
2022/01/11 02:14:53;;;;;;;20.03;11.53;;;;;;;-0.23;100.00;96655.66;6048987;23;20184;-83
2022/01/11 02:17:19;;;;;;;22.17;12.53;;;;;;;-0.28;100.00;96653.25;6048652;23;20573;-83
2022/01/11 02:19:44;;;;;;;29.93;12.50;;;;;;;-0.27;100.00;96648.97;6048699;23;20157;-83
2022/01/11 02:22:09;;;;;;;24.80;11.43;;;;;;;-0.22;100.00;96656.50;6048645;23;20180;-84
2022/01/11 02:24:35;;;;;;;25.93;11.83;;;;;;;-0.20;100.00;96652.16;6049442;23;20196;-83
2022/01/11 02:27:00;;;;;;;26.83;11.80;;;;;;;-0.17;100.00;96649.50;6072535;23;20215;-83
2022/01/11 02:29:27;;;;;;;24.90;12.73;;;;;;;-0.12;100.00;96660.38;6048868;23;20511;-83
2022/01/11 02:31:52;;;;;;;23.00;12.53;;;;;;;-0.16;100.00;96651.16;6071856;23;20253;-83
2022/01/11 02:34:18;;;;;;;25.30;11.13;;;;;;;-0.17;100.00;96657.16;6049454;23;20171;-83
2022/01/11 02:36:43;;;;;;;23.67;11.87;;;;;;;-0.16;100.00;96662.22;6072455;23;20171;-83
2022/01/11 02:39:09;;;;;;;29.17;12.43;;;;;;;-0.16;100.00;96666.50;6049235;23;20607;-84
2022/01/11 02:41:34;;;;;;;22.43;11.93;;;;;;;-0.17;100.00;96655.44;6049986;23;20610;-83
2022/01/11 02:44:00;;;;;;;23.93;12.23;;;;;;;-0.13;100.00;96664.66;6075949;23;20169;-82
2022/01/11 02:46:26;;;;;;;29.20;13.47;;;;;;;-0.18;100.00;96658.84;6076712;23;20170;-82
2022/01/11 02:48:53;;;;;;;25.77;13.00;;;;;;;-0.20;100.00;96667.47;6051748;23;20187;-82
2022/01/11 02:51:19;;;;;;;24.63;13.20;;;;;;;-0.15;100.00;96663.88;6050817;23;20184;-81
2022/01/11 02:53:47;;;;;;;25.80;13.27;;;;;;;-0.19;100.00;96666.56;6052216;23;20163;-83
2022/01/11 02:56:14;;;;;;;25.07;13.27;;;;;;;-0.15;100.00;96665.59;6073358;23;20162;-81
2022/01/11 02:58:39;;;;;;;27.37;14.17;;;;;;;-0.17;100.00;96659.72;6074429;23;20167;-82
2022/01/11 03:01:05;;;;;;;23.33;13.80;;;;;;;-0.17;100.00;96659.72;6062657;23;20255;-82
2022/01/11 03:03:31;;;;;;;29.10;14.63;;;;;;;-0.18;100.00;96663.13;6052059;23;20258;-82
2022/01/11 03:06:00;;;;;;;27.47;15.27;;;;;;;-0.21;100.00;96665.81;6051541;23;20163;-82
2022/01/11 03:08:27;;;;;;;28.37;16.03;;;;;;;-0.15;100.00;96663.03;6049979;23;20191;-82
2022/01/11 03:10:53;;;;;;;28.90;16.67;;;;;;;-0.18;100.00;96663.13;6075263;23;20164;-83
2022/01/11 03:13:22;;;;;;;32.47;16.27;;;;;;;-0.17;100.00;96662.28;6049925;23;20160;-82
2022/01/11 03:15:48;;;;;;;30.70;16.50;;;;;;;-0.06;100.00;96660.16;6074113;23;20211;-82
2022/01/11 03:18:14;;;;;;;31.77;16.77;;;;;;;-0.14;100.00;96662.16;6101713;23;20209;-83
2022/01/11 03:20:40;;;;;;;33.40;16.37;;;;;;;-0.20;100.00;96654.72;6070707;23;20630;-83
2022/01/11 03:23:06;;;;;;;32.67;16.80;;;;;;;-0.16;100.00;96661.38;6047546;23;20163;-82
2022/01/11 03:25:32;;;;;;;32.73;16.63;;;;;;;-0.21;100.00;96658.16;6048549;23;20171;-82
2022/01/11 03:27:58;;;;;;;28.37;17.03;;;;;;;-0.23;100.00;96663.31;6070977;23;20180;-84
2022/01/11 03:30:23;;;;;;;32.07;17.57;;;;;;;-0.28;100.00;96663.47;6074091;23;20497;-83
2022/01/11 03:32:49;;;;;;;36.73;18.57;;;;;;;-0.31;100.00;96658.47;6073169;23;20484;-84
2022/01/11 03:35:14;;;;;;;38.97;18.90;;;;;;;-0.32;100.00;96667.03;6073879;23;20163;-83
2022/01/11 03:37:41;;;;;;;31.67;17.00;;;;;;;-0.34;100.00;96673.91;6049973;23;20421;-83
2022/01/11 03:40:09;;;;;;;35.90;17.47;;;;;;;-0.35;100.00;96671.41;6049534;23;20164;-84
2022/01/11 03:42:35;;;;;;;37.53;18.40;;;;;;;-0.39;100.00;96673.22;6047349;23;20177;-82
2022/01/11 03:45:00;;;;;;;34.70;17.70;;;;;;;-0.42;100.00;96672.50;6048869;23;20157;-83
2022/01/11 03:47:25;;;;;;;33.80;18.90;;;;;;;-0.39;100.00;96669.84;6049367;23;20476;-83
2022/01/11 03:49:51;;;;;;;42.33;19.23;;;;;;;-0.41;100.00;96680.13;6049374;23;20156;-83
2022/01/11 03:52:16;;;;;;;36.37;19.33;;;;;;;-0.41;100.00;96681.84;6050260;23;20532;-84
2022/01/11 03:54:50;;;;;;;34.13;18.00;;;;;;;-0.44;100.00;96682.78;6051816;23;20168;-83
2022/01/11 03:57:16;;;;;;;33.27;18.27;;;;;;;-0.45;100.00;96678.53;6057200;23;20199;-83
2022/01/11 03:59:41;;;;;;;40.57;19.83;;;;;;;-0.49;100.00;96671.06;6054098;23;20164;-83
2022/01/11 04:02:07;;;;;;;37.00;19.27;;;;;;;-0.54;100.00;96671.19;6053356;23;20183;-83
2022/01/11 04:04:33;;;;;;;41.40;20.43;;;;;;;-0.57;100.00;96676.41;6054472;23;20532;-84
2022/01/11 04:07:00;;;;;;;33.73;18.47;;;;;;;-0.60;100.00;96686.75;6079135;23;20179;-84
2022/01/11 04:09:25;;;;;;;37.77;19.93;;;;;;;-0.62;100.00;96680.84;6055498;23;20248;-84
2022/01/11 04:11:50;;;;;;;36.40;18.97;;;;;;;-0.62;100.00;96683.38;6053139;23;20156;-84
2022/01/11 04:14:16;;;;;;;40.37;19.73;;;;;;;-0.63;100.00;96681.72;6054432;23;20168;-84
2022/01/11 04:16:44;;;;;;;38.13;17.87;;;;;;;-0.64;100.00;96686.00;6054231;23;20523;-84
2022/01/11 04:19:09;;;;;;;41.77;20.73;;;;;;;-0.63;100.00;96684.28;6078397;23;20160;-84
2022/01/11 04:21:34;;;;;;;47.03;21.17;;;;;;;-0.59;100.00;96678.19;6054158;23;20262;-84
2022/01/11 04:24:02;;;;;;;37.53;19.27;;;;;;;-0.57;100.00;96681.53;6078252;23;20625;-84
2022/01/11 04:26:27;;;;;;;37.43;20.47;;;;;;;-0.58;100.00;96687.50;6052771;23;20255;-83
2022/01/11 04:28:53;;;;;;;43.00;21.40;;;;;;;-0.52;100.00;96686.47;6054445;23;20171;-84
2022/01/11 04:31:18;;;;;;;47.23;22.23;;;;;;;-0.48;100.00;96691.41;6053206;23;20162;-84
2022/01/11 04:33:44;;;;;;;40.40;21.00;;;;;;;-0.48;100.00;96682.94;6078495;23;20640;-82
2022/01/11 04:36:11;;;;;;;42.17;21.93;;;;;;;-0.46;100.00;96688.81;6102680;23;20207;-83
2022/01/11 04:38:36;;;;;;;44.40;23.00;;;;;;;-0.46;100.00;96694.72;6077107;23;20502;-84
2022/01/11 04:41:02;;;;;;;41.97;22.70;;;;;;;-0.44;100.00;96689.56;6073605;23;20186;-82
2022/01/11 04:43:32;;;;;;;46.77;24.07;;;;;;;-0.44;100.00;96692.13;6072459;23;20638;-82
2022/01/11 04:45:58;;;;;;;43.13;22.47;;;;;;;-0.37;100.00;96689.31;6055640;23;20155;-82
2022/01/11 04:48:23;;;;;;;45.27;24.20;;;;;;;-0.41;100.00;96697.16;6053636;23;20219;-82
2022/01/11 04:50:49;;;;;;;56.23;24.73;;;;;;;-0.38;100.00;96692.75;6078804;23;20164;-82
2022/01/11 04:53:14;;;;;;;49.20;25.57;;;;;;;-0.36;100.00;96700.34;6078752;23;20155;-82
2022/01/11 04:55:40;;;;;;;47.97;25.73;;;;;;;-0.38;100.00;96699.59;6079104;23;20156;-83
2022/01/11 04:58:05;;;;;;;49.43;24.13;;;;;;;-0.37;100.00;96707.19;6077892;23;20180;-83
2022/01/11 05:00:31;;;;;;;50.20;25.50;;;;;;;-0.36;100.00;96710.56;6055246;23;20606;-82
2022/01/11 05:02:58;;;;;;;46.13;26.00;;;;;;;-0.34;100.00;96708.81;6050054;23;20203;-82
2022/01/11 05:05:24;;;;;;;54.63;26.23;;;;;;;-0.34;100.00;96713.91;6055920;23;20166;-83
2022/01/11 05:07:50;;;;;;;47.17;24.50;;;;;;;-0.32;100.00;96714.69;6079315;23;20191;-83
2022/01/11 05:10:15;;;;;;;47.10;23.53;;;;;;;-0.38;100.00;96713.16;6055857;23;20164;-82
2022/01/11 05:12:41;;;;;;;48.40;24.23;;;;;;;-0.33;100.00;96711.31;6049216;23;20686;-82
2022/01/11 05:15:11;;;;;;;50.07;24.97;;;;;;;-0.30;100.00;96725.69;6048588;23;20184;-83
2022/01/11 05:17:38;;;;;;;46.53;23.57;;;;;;;-0.34;100.00;96719.84;6048483;23;20765;-82
2022/01/11 05:20:04;;;;;;;50.10;23.63;;;;;;;-0.33;100.00;96726.63;6077871;23;20375;-82
2022/01/11 05:22:30;;;;;;;44.20;24.13;;;;;;;-0.35;100.00;96722.47;6075243;23;20241;-82
2022/01/11 05:24:55;;;;;;;42.73;22.87;;;;;;;-0.35;100.00;96720.75;6049572;23;20167;-81
2022/01/11 05:27:20;;;;;;;45.03;23.67;;;;;;;-0.38;100.00;96720.81;6050874;23;20176;-83
2022/01/11 05:29:46;;;;;;;47.90;22.67;;;;;;;-0.40;100.00;96720.06;6047854;23;20160;-80
2022/01/11 05:32:11;;;;;;;49.47;24.53;;;;;;;-0.40;100.00;96725.16;6073116;23;20140;-83
2022/01/11 05:34:37;;;;;;;51.57;25.80;;;;;;;-0.41;100.00;96722.66;6049941;23;20535;-84
2022/01/11 05:37:03;;;;;;;48.23;26.43;;;;;;;-0.40;100.00;96726.88;6074129;23;20206;-84
2022/01/11 05:39:28;;;;;;;53.90;28.97;;;;;;;-0.42;100.00;96726.09;6050585;23;20164;-83
2022/01/11 05:41:53;;;;;;;54.07;27.50;;;;;;;-0.42;100.00;96726.94;6073734;23;20191;-84
2022/01/11 05:44:19;;;;;;;52.27;25.50;;;;;;;-0.41;100.00;96728.59;6049606;23;20170;-83
2022/01/11 05:46:44;;;;;;;51.20;26.13;;;;;;;-0.42;100.00;96738.88;6049902;23;20183;-84
2022/01/11 05:49:13;;;;;;;48.23;26.10;;;;;;;-0.39;100.00;96741.31;6074808;23;20160;-83
2022/01/11 05:51:38;;;;;;;47.07;23.70;;;;;;;-0.39;100.00;96743.84;6074489;23;20156;-84
2022/01/11 05:54:04;;;;;;;50.37;23.80;;;;;;;-0.40;100.00;96742.19;6047004;23;20606;-80
2022/01/11 05:56:29;;;;;;;42.80;22.53;;;;;;;-0.42;100.00;96749.06;6049388;23;20174;-82
2022/01/11 05:58:54;;;;;;;37.43;21.87;;;;;;;-0.43;100.00;96750.78;6074557;23;20160;-83
2022/01/11 06:01:20;;;;;;;44.47;22.07;;;;;;;-0.42;100.00;96755.00;6051955;23;20188;-82
2022/01/11 06:03:45;;;;;;;38.67;21.00;;;;;;;-0.35;100.00;96759.03;6071067;23;20171;-81
2022/01/11 06:06:11;;;;;;;48.80;23.90;;;;;;;-0.42;100.00;96760.13;6098263;23;20162;-81
2022/01/11 06:08:36;;;;;;;43.03;22.80;;;;;;;-0.37;100.00;96760.78;6068707;23;20195;-82
2022/01/11 06:11:11;;;;;;;41.50;22.10;;;;;;;-0.32;100.00;96758.91;6046761;23;20160;-82
2022/01/11 06:13:36;;;;;;;39.37;21.47;;;;;;;-0.34;100.00;96759.88;6074842;23;20207;-80
2022/01/11 06:16:02;;;;;;;42.10;21.23;;;;;;;-0.31;100.00;96755.47;6079491;23;20198;-82
2022/01/11 06:18:27;;;;;;;39.80;21.43;;;;;;;-0.33;100.00;96766.63;6106385;23;20179;-82
2022/01/11 06:20:52;;;;;;;38.80;22.07;;;;;;;-0.33;100.00;96766.63;6081561;23;20187;-83
2022/01/11 06:23:17;;;;;;;39.23;20.77;;;;;;;-0.33;100.00;96769.19;6081407;23;20162;-83
2022/01/11 06:25:43;;;;;;;36.93;20.83;;;;;;;-0.35;100.00;96766.69;6056989;23;20207;-81
2022/01/11 06:28:11;;;;;;;47.40;23.20;;;;;;;-0.35;100.00;96768.41;6055965;23;20262;-83
2022/01/11 06:30:37;;;;;;;40.53;21.70;;;;;;;-0.40;100.00;96775.38;6053482;23;20175;-82
2022/01/11 06:33:02;;;;;;;40.47;22.97;;;;;;;-0.42;100.00;96772.88;6053194;23;20164;-81
2022/01/11 06:35:27;;;;;;;51.87;23.07;;;;;;;-0.42;100.00;96780.53;6053419;23;20164;-82
2022/01/11 06:37:53;;;;;;;43.63;21.70;;;;;;;-0.38;100.00;96776.16;6050379;23;20195;-80
2022/01/11 06:40:20;;;;;;;49.50;23.60;;;;;;;-0.32;100.00;96783.59;6073169;23;20559;-82
2022/01/11 06:42:46;;;;;;;48.87;23.40;;;;;;;-0.32;100.00;96779.34;6048107;23;20520;-81
2022/01/11 06:45:11;;;;;;;45.80;21.97;;;;;;;-0.31;100.00;96780.16;6048596;23;20191;-80
2022/01/11 06:47:37;;;;;;;44.33;22.13;;;;;;;-0.25;100.00;96782.53;6046758;23;20187;-82
2022/01/11 06:50:03;;;;;;;39.03;22.43;;;;;;;-0.28;100.00;96786.00;6072489;23;20653;-79
2022/01/11 06:52:28;;;;;;;43.20;19.83;;;;;;;-0.23;100.00;96792.69;6071438;23;20211;-80
2022/01/11 06:54:54;;;;;;;37.93;21.27;;;;;;;-0.25;100.00;96790.19;6074047;23;20163;-81
2022/01/11 06:57:19;;;;;;;38.13;19.13;;;;;;;-0.23;100.00;96795.22;6072959;23;20178;-82
2022/01/11 06:59:44;;;;;;;39.70;20.23;;;;;;;-0.28;100.00;96790.25;6048622;23;20457;-81
2022/01/11 07:02:10;;;;;;;34.03;19.93;;;;;;;-0.26;100.00;96797.91;6046480;23;20586;-81
2022/01/11 07:04:37;;;;;;;36.33;19.63;;;;;;;-0.28;100.00;96805.59;6048654;23;20164;-80
2022/01/11 07:07:04;;;;;;;34.87;19.67;;;;;;;-0.26;100.00;96798.72;6073434;23;20191;-81
2022/01/11 07:09:29;;;;;;;35.00;19.60;;;;;;;-0.19;100.00;96802.72;6075605;23;20159;-80
2022/01/11 07:11:54;;;;;;;39.00;19.43;;;;;;;-0.20;100.00;96801.06;6053562;23;20169;-79
2022/01/11 07:14:19;;;;;;;38.20;20.10;;;;;;;-0.27;100.00;96799.59;6054059;23;20152;-82
2022/01/11 07:16:48;;;;;;;34.37;18.83;;;;;;;-0.21;100.00;96806.22;6073938;23;20259;-81
2022/01/11 07:19:17;;;;;;;37.50;20.20;;;;;;;-0.23;100.00;96806.28;6074842;23;20172;-80
2022/01/11 07:21:44;;;;;;;29.67;17.40;;;;;;;-0.15;100.00;96813.69;6072890;23;20277;-82
2022/01/11 07:24:10;;;;;;;36.77;18.57;;;;;;;-0.14;100.00;96817.91;6072937;23;20222;-82
2022/01/11 07:26:35;;;;;;;35.37;18.47;;;;;;;-0.12;100.00;96816.94;6100548;23;20211;-81
2022/01/11 07:29:03;;;;;;;37.37;18.77;;;;;;;-0.12;100.00;96819.50;6050098;23;20533;-81
2022/01/11 07:31:29;;;;;;;34.63;19.43;;;;;;;-0.10;100.00;96827.09;6050420;23;20159;-81
2022/01/11 07:33:54;;;;;;;32.33;19.00;;;;;;;-0.11;100.00;96831.38;6101657;23;20196;-82
2022/01/11 07:37:17;;;;;;;37.13;19.60;;;;;;;-0.06;100.00;96833.78;6053135;23;20178;-88
2022/01/11 07:39:42;;;;;;;33.63;18.83;;;;;;;-0.08;100.00;96838.13;6077262;23;20179;-86
2022/01/11 07:42:13;;;;;;;33.10;19.57;;;;;;;-0.04;100.00;96840.50;6055244;23;20179;-85
2022/01/11 07:44:39;;;;;;;36.07;19.10;;;;;;;-0.13;100.00;96845.09;6053508;23;20296;-78
2022/01/11 07:47:04;;;;;;;40.73;21.00;;;;;;;-0.08;100.00;96845.78;6053316;23;20259;-79
2022/01/11 07:49:30;;;;;;;39.90;21.67;;;;;;;-0.06;100.00;96844.00;6077522;23;20183;-79
2022/01/11 07:51:55;;;;;;;38.67;20.77;;;;;;;-0.06;100.00;96847.41;6076199;23;20180;-79
2022/01/11 07:54:21;;;;;;;38.47;21.13;;;;;;;-0.10;100.00;96848.38;6078040;23;20211;-79
2022/01/11 07:56:46;;;;;;;40.57;20.60;;;;;;;-0.03;100.00;96854.09;6077732;23;20289;-80
2022/01/11 07:59:12;;;;;;;37.90;19.47;;;;;;;-0.02;100.00;96853.22;6053418;23;20159;-80
2022/01/11 08:01:38;;;;;;;38.23;21.13;;;;;;;-0.07;100.00;96855.13;6075243;23;20191;-79
2022/01/11 08:04:04;;;;;;;35.77;20.37;;;;;;;-0.03;100.00;96862.59;6075886;23;20171;-80
2022/01/11 08:06:29;;;;;;;37.10;20.63;;;;;;;0.06;100.00;96864.00;6051941;23;20156;-79
2022/01/11 08:08:54;;;;;;;36.30;21.33;;;;;;;0.02;100.00;96869.28;6100850;23;20533;-80
2022/01/11 08:11:21;;;;;;;37.60;20.07;;;;;;;0.00;100.00;96866.81;6052261;23;20202;-79
2022/01/11 08:13:46;;;;;;;38.57;19.60;;;;;;;0.10;100.00;96868.16;6052131;23;20164;-79
2022/01/11 08:16:11;;;;;;;38.17;21.50;;;;;;;0.09;100.00;96870.72;6051751;23;20155;-80
2022/01/11 08:18:36;;;;;;;36.13;19.23;;;;;;;0.13;100.00;96868.03;6050663;23;20559;-78
2022/01/11 08:21:02;;;;;;;37.37;20.63;;;;;;;0.12;100.00;96863.00;6075138;23;20200;-79
2022/01/11 08:23:27;;;;;;;33.47;19.00;;;;;;;0.19;100.00;96870.41;6074132;23;20166;-79
2022/01/11 08:25:53;;;;;;;35.43;20.03;;;;;;;0.26;100.00;96873.56;6050663;23;20163;-80
2022/01/11 08:28:18;;;;;;;34.97;19.70;;;;;;;0.32;100.00;96875.91;6051899;23;20180;-80
2022/01/11 08:30:43;;;;;;;40.43;21.27;;;;;;;0.25;100.00;96879.56;6073554;23;20488;-79
2022/01/11 08:33:09;;;;;;;37.30;20.23;;;;;;;0.18;100.00;96876.41;6073719;23;20207;-80
2022/01/11 08:35:35;;;;;;;39.43;21.27;;;;;;;0.23;100.00;96877.06;6052170;23;20160;-78
2022/01/11 08:38:01;;;;;;;35.83;20.23;;;;;;;0.36;100.00;96881.75;6050419;23;20634;-79
2022/01/11 08:40:26;;;;;;;33.93;20.07;;;;;;;0.32;100.00;96885.28;6050637;23;20171;-80
2022/01/11 08:42:52;;;;;;;35.03;19.57;;;;;;;0.39;100.00;96886.75;6099088;23;20187;-80
2022/01/11 08:45:18;;;;;;;38.67;19.27;;;;;;;0.32;100.00;96892.97;6073892;23;20160;-80
2022/01/11 08:47:43;;;;;;;35.07;20.80;;;;;;;0.37;100.00;96891.09;6074169;23;20203;-80
2022/01/11 08:50:11;;;;;;;37.03;19.27;;;;;;;0.43;100.00;96883.19;6051243;23;20164;-81
2022/01/11 08:52:37;;;;;;;32.30;19.73;;;;;;;0.38;100.00;96888.47;6051158;23;20583;-81
2022/01/11 08:55:03;;;;;;;33.93;18.63;;;;;;;0.52;100.00;96888.81;6051648;23;20160;-81
2022/01/11 08:57:29;;;;;;;36.97;20.17;;;;;;;0.51;100.00;96883.75;6075856;23;20215;-80
2022/01/11 08:59:54;;;;;;;31.40;19.13;;;;;;;0.58;100.00;96895.44;6074953;23;20303;-80
2022/01/11 09:02:21;;;;;;;37.10;19.30;;;;;;;0.55;100.00;96898.13;6075824;23;20182;-79
2022/01/11 09:04:47;;;;;;;36.63;21.27;;;;;;;0.66;100.00;96898.56;6074627;23;20178;-78
2022/01/11 09:07:12;;;;;;;31.43;18.97;;;;;;;0.67;100.00;96895.13;6074285;23;20242;-80
2022/01/11 09:09:38;;;;;;;32.87;18.53;;;;;;;0.81;100.00;96897.19;6050190;23;20549;-80
2022/01/11 09:12:06;;;;;;;36.27;20.20;;;;;;;0.82;99.78;96901.41;6073131;23;20163;-80
2022/01/11 09:14:33;;;;;;;34.17;18.63;;;;;;;0.67;100.00;96897.69;6049564;23;20168;-81
2022/01/11 09:17:02;;;;;;;33.30;19.40;;;;;;;0.77;100.00;96898.19;6073702;23;20192;-80
2022/01/11 09:19:27;;;;;;;33.90;18.13;;;;;;;0.70;99.91;96905.22;6080421;23;20154;-81
2022/01/11 09:21:52;;;;;;;34.83;18.43;;;;;;;0.88;99.14;96902.91;6074770;23;20199;-81
2022/01/11 09:24:19;;;;;;;31.83;18.67;;;;;;;0.91;99.03;96901.09;6099062;23;20156;-82
2022/01/11 09:26:45;;;;;;;34.60;18.70;;;;;;;0.93;98.78;96901.03;6099750;23;20204;-81
2022/01/11 09:29:11;;;;;;;30.97;19.13;;;;;;;0.90;99.32;96903.69;6050019;23;20165;-81
2022/01/11 09:31:36;;;;;;;28.27;17.00;;;;;;;1.04;99.32;96902.28;6048945;23;20158;-79
2022/01/11 09:34:02;;;;;;;30.77;19.47;;;;;;;1.03;99.16;96903.19;6048496;23;20644;-80
2022/01/11 09:36:28;;;;;;;32.57;19.10;;;;;;;1.09;98.75;96904.69;6048970;23;20592;-81
2022/01/11 09:38:53;;;;;;;29.77;17.97;;;;;;;1.17;98.59;96900.13;6047420;23;20192;-80
2022/01/11 09:41:18;;;;;;;30.37;18.33;;;;;;;1.18;98.08;96909.47;6070308;23;20674;-82
2022/01/11 09:43:44;;;;;;;28.67;17.87;;;;;;;1.18;98.24;96906.06;6073367;23;20183;-81
2022/01/11 09:46:09;;;;;;;31.03;19.27;;;;;;;1.13;98.49;96913.91;6072741;23;20160;-80
2022/01/11 09:48:35;;;;;;;44.97;24.50;;;;;;;1.05;98.65;96926.13;6048623;23;20179;-79
2022/01/11 09:51:01;;;;;;;32.07;20.20;;;;;;;1.22;98.49;96926.34;6096842;23;20154;-82
2022/01/11 09:53:26;;;;;;;31.87;17.93;;;;;;;1.28;98.27;96927.88;6047001;23;20167;-80
2022/01/11 09:55:52;;;;;;;36.07;20.37;;;;;;;1.21;98.32;96929.81;6072153;23;20167;-81
2022/01/11 09:58:17;;;;;;;35.23;20.47;;;;;;;1.23;97.09;96922.06;6048148;23;20176;-82
2022/01/11 10:00:43;;;;;;;81.20;38.97;;;;;;;1.17;98.04;96930.81;6048125;23;20500;-82
2022/01/11 10:03:09;;;;;;;48.20;25.93;;;;;;;1.20;98.04;96929.88;6047804;23;20190;-81
2022/01/11 10:05:36;;;;;;;36.70;21.67;;;;;;;1.21;98.00;96934.94;6072186;23;20156;-82
2022/01/11 10:08:21;;;;;;;31.27;18.30;;;;;;;1.32;97.21;96930.22;6072229;23;20259;-82
2022/01/11 10:10:48;;;;;;;47.37;25.33;;;;;;;1.33;97.71;96937.06;6072281;23;20168;-78
2022/01/11 10:13:28;;;;;;;59.17;30.37;;;;;;;1.38;97.53;96927.44;6047931;23;20169;-81
2022/01/11 10:15:54;;;;;;;28.50;19.37;;;;;;;1.48;97.02;96934.78;6048541;23;20167;-80
2022/01/11 10:18:36;;;;;;;40.83;23.63;;;;;;;1.33;97.53;96928.53;6048914;23;20601;-80
2022/01/11 10:21:37;;;;;;;31.37;18.80;;;;;;;1.38;97.42;96935.13;6073177;23;20199;-79
2022/01/11 10:24:32;;;;;;;30.60;19.10;;;;;;;1.50;97.45;96933.00;6097644;23;20611;-79
2022/01/11 10:27:00;;;;;;;29.57;17.17;;;;;;;1.60;96.74;96931.78;6097090;23;20176;-81
2022/01/11 10:29:37;;;;;;;30.43;17.13;;;;;;;1.62;95.88;96922.28;6047236;23;20164;-80
2022/01/11 10:32:10;;;;;;;32.17;20.67;;;;;;;1.73;96.16;96935.50;6048023;23;20152;-81
2022/01/11 10:34:35;;;;;;;26.47;17.50;;;;;;;1.76;95.69;96926.88;6070994;23;20263;-81
2022/01/11 10:37:03;;;;;;;28.60;17.93;;;;;;;1.50;95.46;96933.81;6071140;23;20211;-82
2022/01/11 10:39:34;;;;;;;32.87;18.40;;;;;;;1.42;95.81;96926.47;6047399;23;20161;-81
2022/01/11 10:42:00;;;;;;;28.20;17.77;;;;;;;1.62;95.75;96917.19;6045693;23;20173;-82
2022/01/11 10:44:50;;;;;;;32.43;17.83;;;;;;;1.74;96.02;96920.97;6070332;23;20234;-80
2022/01/11 10:47:28;;;;;;;29.67;18.50;;;;;;;1.62;95.12;96924.84;6047004;23;20203;-82
2022/01/11 10:49:56;;;;;;;29.87;18.00;;;;;;;1.67;96.19;96915.25;6071545;23;20575;-81
2022/01/11 10:52:24;;;;;;;29.60;17.80;;;;;;;1.85;95.89;96924.78;6046448;23;20165;-81
2022/01/11 10:54:50;;;;;;;26.33;16.53;;;;;;;1.79;94.13;96929.31;6046327;23;20222;-80
2022/01/11 10:57:18;;;;;;;27.83;18.47;;;;;;;1.82;94.03;96935.16;6047406;23;20185;-81
2022/01/11 11:00:06;;;;;;;22.70;15.73;;;;;;;1.82;93.88;96936.88;6047586;23;20258;-80
2022/01/11 11:02:32;;;;;;;27.37;15.67;;;;;;;2.01;93.10;96929.28;6072379;23;20188;-80
2022/01/11 11:04:58;;;;;;;27.10;16.30;;;;;;;1.80;93.69;96929.25;6049105;23;20223;-81
2022/01/11 11:07:25;;;;;;;25.83;17.00;;;;;;;1.82;93.71;96921.50;6049242;23;20263;-80
2022/01/11 11:09:51;;;;;;;24.13;14.73;;;;;;;1.86;93.38;96926.47;6073265;23;20180;-81